createdAt,value
2019-04-22T00:00:02.985Z,8.37
2019-04-22T00:10:32.018Z,7.24
2019-04-22T00:20:22.223Z,8.47
2019-04-22T00:40:19.449Z,8.14
2019-04-22T00:50:29.783Z,8.02
2019-04-22T01:00:30.606Z,7.67
2019-04-22T01:10:31.564Z,7.91
2019-04-22T01:20:54.158Z,7.43
2019-04-22T01:30:14.380Z,7.03
2019-04-22T01:40:23.628Z,6.66
2019-04-22T01:50:25.662Z,6.30
2019-04-22T02:00:21.989Z,6.41
2019-04-22T02:10:34.425Z,6.91
2019-04-22T02:30:33.070Z,7.37
2019-04-22T02:50:27.856Z,6.45
2019-04-22T03:00:29.041Z,6.04
2019-04-22T03:40:36.204Z,6.88
2019-04-22T04:00:42.787Z,7.05
2019-04-22T04:10:39.444Z,7.23
2019-04-22T04:20:28.297Z,7.02
2019-04-22T04:30:31.078Z,7.43
2019-04-22T04:40:30.965Z,7.73
2019-04-22T04:50:37.693Z,7.97
2019-04-22T05:00:47.865Z,8.02
2019-04-22T05:40:27.867Z,9.96
2019-04-22T05:50:22.711Z,10.99
2019-04-22T06:10:32.509Z,11.63
2019-04-22T06:20:32.024Z,12.46
2019-04-22T06:30:20.440Z,12.50
2019-04-22T06:40:31.355Z,12.95
2019-04-22T06:50:30.080Z,13.52
2019-04-22T07:00:30.349Z,14.24
2019-04-22T07:20:23.556Z,15.33
2019-04-22T07:30:26.058Z,15.32
2019-04-22T07:50:42.594Z,17.22
2019-04-22T08:00:28.906Z,17.18
2019-04-22T08:10:36.637Z,17.88
2019-04-22T08:20:28.363Z,18.66
2019-04-22T08:30:33.413Z,18.96
2019-04-22T08:40:19.815Z,18.68
2019-04-22T08:50:26.504Z,19.23
2019-04-22T09:00:29.050Z,19.41
2019-04-22T09:20:20.269Z,20.71
2019-04-22T09:30:33.948Z,21.11
2019-04-22T09:40:21.540Z,21.34
2019-04-22T09:50:28.984Z,20.81
2019-04-22T10:00:26.726Z,21.48
2019-04-22T10:20:30.698Z,21.84
2019-04-22T10:30:38.111Z,21.54
2019-04-22T10:40:04.689Z,21.72
2019-04-22T10:50:02.683Z,21.99
2019-04-22T11:00:02.961Z,21.70
2019-04-22T11:10:20.252Z,21.56
2019-04-22T11:20:08.501Z,21.93
2019-04-22T11:30:03.885Z,22.39
2019-04-22T11:40:11.224Z,22.42
2019-04-22T11:50:03.775Z,22.41
2019-04-22T12:00:09.097Z,22.79
2019-04-22T12:10:15.035Z,22.97
2019-04-22T12:20:05.461Z,24.08
2019-04-22T12:30:03.096Z,22.71
2019-04-22T12:40:02.745Z,23.56
2019-04-22T12:50:08.691Z,23.44
2019-04-22T13:00:03.694Z,22.88
2019-04-22T13:10:08.287Z,22.82
2019-04-22T13:20:02.672Z,22.78
2019-04-22T13:30:04.522Z,23.06
2019-04-22T13:40:03.510Z,22.86
2019-04-22T13:50:42.270Z,22.69
2019-04-22T14:00:04.661Z,22.83
2019-04-22T14:10:02.751Z,22.66
2019-04-22T14:20:08.957Z,22.86
2019-04-22T14:30:03.598Z,22.67
2019-04-22T14:40:09.414Z,22.53
2019-04-22T14:50:17.396Z,22.34
2019-04-22T15:00:04.265Z,22.55
2019-04-22T15:10:02.202Z,23.12
2019-04-22T15:20:03.476Z,22.56
2019-04-22T15:30:03.608Z,22.03
2019-04-22T15:40:02.956Z,22.32
2019-04-22T15:50:03.833Z,22.19
2019-04-22T16:00:14.166Z,22.01
2019-04-22T16:10:09.783Z,22.03
2019-04-22T16:20:03.505Z,21.69
2019-04-22T16:30:03.549Z,21.62
2019-04-22T16:40:03.133Z,21.39
2019-04-22T16:50:03.738Z,21.16
2019-04-22T17:00:03.022Z,20.90
2019-04-22T17:10:08.279Z,20.59
2019-04-22T17:20:03.026Z,20.28
2019-04-22T17:30:04.198Z,20.01
2019-04-22T17:40:24.018Z,19.82
2019-04-22T17:50:26.285Z,19.56
2019-04-22T18:00:18.336Z,19.24
2019-04-22T18:10:30.631Z,18.96
2019-04-22T18:20:17.342Z,18.55
2019-04-22T18:30:17.598Z,18.18
2019-04-22T18:40:23.560Z,18.08
2019-04-22T18:50:31.808Z,17.96
2019-04-22T19:00:05.084Z,17.74
2019-04-22T19:10:17.019Z,17.38
2019-04-22T19:20:30.737Z,17.21
2019-04-22T19:30:21.720Z,16.99
2019-04-22T19:50:22.581Z,16.95
2019-04-22T20:00:18.994Z,16.72
2019-04-22T20:10:24.516Z,16.61
2019-04-22T20:20:27.031Z,16.51
2019-04-22T20:30:17.042Z,16.34
2019-04-22T20:40:22.903Z,16.22
2019-04-22T20:50:23.344Z,16.07
2019-04-22T21:00:19.505Z,15.86
2019-04-22T21:10:18.212Z,15.70
2019-04-22T21:20:25.725Z,15.49
2019-04-22T21:30:15.066Z,15.28
2019-04-22T21:40:22.603Z,15.10
2019-04-22T21:50:27.950Z,14.84
2019-04-22T22:10:21.019Z,14.46
2019-04-22T22:20:19.514Z,14.30
2019-04-22T22:40:09.087Z,13.87
2019-04-22T22:50:25.793Z,13.73
2019-04-22T23:00:19.272Z,13.47
2019-04-22T23:10:24.309Z,13.26
2019-04-22T23:20:03.743Z,13.18
2019-04-22T23:30:12.632Z,12.86
2019-04-22T23:40:28.987Z,12.78
2019-04-22T23:50:19.505Z,12.46
